createdAt,value
2019-05-15T00:00:29.000Z,101566
2019-05-15T00:02:44.000Z,101564
2019-05-15T00:03:44.000Z,101569
2019-05-15T00:05:44.000Z,101562
2019-05-15T00:06:44.000Z,101565
2019-05-15T00:08:44.000Z,101563
2019-05-15T00:10:28.000Z,101560
2019-05-15T00:11:44.000Z,101556
2019-05-15T00:12:44.000Z,101556
2019-05-15T00:14:44.000Z,101565
2019-05-15T00:15:44.000Z,101554
2019-05-15T00:16:44.000Z,101560
2019-05-15T00:18:44.000Z,101562
2019-05-15T00:19:44.000Z,101562
2019-05-15T00:21:44.000Z,101561
2019-05-15T00:22:44.000Z,101558
2019-05-15T00:24:44.000Z,101560
2019-05-15T00:26:29.000Z,101559
2019-05-15T00:28:44.000Z,101561
2019-05-15T00:30:44.000Z,101563
2019-05-15T00:31:44.000Z,101561
2019-05-15T00:32:44.000Z,101556
2019-05-15T00:34:29.000Z,101557
2019-05-15T00:36:28.000Z,101554
2019-05-15T00:37:44.000Z,101553
2019-05-15T00:39:44.000Z,101552
2019-05-15T00:41:44.000Z,101554
2019-05-15T00:43:44.000Z,101557
2019-05-15T00:45:44.000Z,101557
2019-05-15T00:46:44.000Z,101554
2019-05-15T00:47:44.000Z,101554
2019-05-15T00:49:44.000Z,101556
2019-05-15T00:51:14.000Z,101555
2019-05-15T00:52:44.000Z,101561
2019-05-15T00:53:44.000Z,101556
2019-05-15T00:55:13.000Z,101557
2019-05-15T00:56:44.000Z,101558
2019-05-15T00:58:44.000Z,101560
2019-05-15T01:00:44.000Z,101551
2019-05-15T01:01:44.000Z,101549
2019-05-15T01:03:44.000Z,101550
2019-05-15T01:04:44.000Z,101549
2019-05-15T01:06:44.000Z,101545
2019-05-15T01:07:44.000Z,101548
2019-05-15T01:09:44.000Z,101540
2019-05-15T01:11:29.000Z,101539
2019-05-15T01:12:44.000Z,101536
2019-05-15T01:13:44.000Z,101537
2019-05-15T01:15:29.000Z,101533
2019-05-15T01:16:44.000Z,101544
2019-05-15T01:18:44.000Z,101533
2019-05-15T01:20:44.000Z,101530
2019-05-15T01:21:44.000Z,101530
2019-05-15T01:22:44.000Z,101533
2019-05-15T01:24:44.000Z,101529
2019-05-15T01:26:44.000Z,101529
2019-05-15T01:28:29.000Z,101533
2019-05-15T01:29:29.000Z,101526
2019-05-15T01:31:44.000Z,101527
2019-05-15T01:33:13.000Z,101527
2019-05-15T01:34:44.000Z,101526
2019-05-15T01:36:29.000Z,101522
2019-05-15T01:37:44.000Z,101519
2019-05-15T01:39:44.000Z,101527
2019-05-15T01:41:44.000Z,101516
2019-05-15T01:43:44.000Z,101512
2019-05-15T01:44:44.000Z,101519
2019-05-15T01:46:44.000Z,101518
2019-05-15T01:48:44.000Z,101522
2019-05-15T01:50:44.000Z,101516
2019-05-15T01:51:44.000Z,101507
2019-05-15T01:53:44.000Z,101505
2019-05-15T01:55:29.000Z,101497
2019-05-15T01:56:44.000Z,101507
2019-05-15T01:58:29.000Z,101500
2019-05-15T01:59:29.000Z,101504
2019-05-15T02:00:44.000Z,101499
2019-05-15T02:02:29.000Z,101502
2019-05-15T02:03:44.000Z,101495
2019-05-15T02:05:44.000Z,101501
2019-05-15T02:07:44.000Z,101497
2019-05-15T02:08:44.000Z,101500
2019-05-15T02:10:44.000Z,101500
2019-05-15T02:11:44.000Z,101505
2019-05-15T02:13:44.000Z,101507
2019-05-15T02:14:44.000Z,101503
2019-05-15T02:16:28.000Z,101510
2019-05-15T02:17:44.000Z,101510
2019-05-15T02:19:44.000Z,101517
2019-05-15T02:20:44.000Z,101507
2019-05-15T02:22:44.000Z,101520
2019-05-15T02:23:44.000Z,101510
2019-05-15T02:25:44.000Z,101505
2019-05-15T02:27:28.000Z,101504
2019-05-15T02:28:44.000Z,101507
2019-05-15T02:30:23.000Z,101506
2019-05-15T02:31:29.000Z,101510
2019-05-15T02:33:29.000Z,101513
2019-05-15T02:35:44.000Z,101517
2019-05-15T02:37:13.000Z,101516
2019-05-15T02:38:14.000Z,101513
2019-05-15T02:39:44.000Z,101513
2019-05-15T02:40:44.000Z,101509
2019-05-15T02:42:44.000Z,101508
2019-05-15T02:44:28.000Z,101510
2019-05-15T02:45:29.000Z,101512
2019-05-15T02:47:44.000Z,101517
2019-05-15T02:48:44.000Z,101510
2019-05-15T02:50:28.000Z,101510
2019-05-15T02:51:29.000Z,101509
2019-05-15T02:53:28.000Z,101509
2019-05-15T02:54:29.000Z,101513
2019-05-15T02:56:44.000Z,101509
2019-05-15T02:58:28.000Z,101507
2019-05-15T02:59:44.000Z,101513
2019-05-15T03:01:44.000Z,101514
2019-05-15T03:02:44.000Z,101514
2019-05-15T03:04:44.000Z,101515
2019-05-15T03:06:13.000Z,101513
2019-05-15T03:07:44.000Z,101520
2019-05-15T03:09:29.000Z,101513
2019-05-15T03:11:44.000Z,101515
2019-05-15T03:13:29.000Z,101515
2019-05-15T03:15:44.000Z,101507
2019-05-15T03:17:29.000Z,101506
2019-05-15T03:19:29.000Z,101503
2019-05-15T03:21:44.000Z,101506
2019-05-15T03:23:28.000Z,101505
2019-05-15T03:24:44.000Z,101510
2019-05-15T03:26:28.000Z,101511
2019-05-15T03:27:29.000Z,101516
2019-05-15T03:28:44.000Z,101503
2019-05-15T03:29:44.000Z,101506
2019-05-15T03:32:29.000Z,101506
2019-05-15T03:34:14.000Z,101509
2019-05-15T03:35:15.000Z,101514
2019-05-15T03:36:29.000Z,101514
2019-05-15T03:37:29.000Z,101512
2019-05-15T03:39:29.000Z,101514
2019-05-15T03:41:29.000Z,101518
2019-05-15T03:42:44.000Z,101515
2019-05-15T03:44:44.000Z,101511
2019-05-15T03:46:44.000Z,101515
2019-05-15T03:48:28.000Z,101518
2019-05-15T03:49:44.000Z,101519
2019-05-15T03:51:13.000Z,101514
2019-05-15T03:52:44.000Z,101514
2019-05-15T03:54:28.000Z,101512
2019-05-15T03:55:29.000Z,101510
2019-05-15T03:56:44.000Z,101516
2019-05-15T03:58:44.000Z,101511
2019-05-15T03:59:44.000Z,101515
2019-05-15T04:01:28.000Z,101511
2019-05-15T04:02:44.000Z,101518
2019-05-15T04:04:13.000Z,101514
2019-05-15T04:05:44.000Z,101518
2019-05-15T04:07:44.000Z,101516
2019-05-15T04:09:44.000Z,101516
2019-05-15T04:11:28.000Z,101506
2019-05-15T04:12:44.000Z,101512
2019-05-15T04:14:28.000Z,101508
2019-05-15T04:15:29.000Z,101519
2019-05-15T04:16:29.000Z,101514
2019-05-15T04:17:44.000Z,101513
2019-05-15T04:19:29.000Z,101515
2019-05-15T04:20:29.000Z,101519
2019-05-15T04:21:29.000Z,101520
2019-05-15T04:23:29.000Z,101518
2019-05-15T04:25:29.000Z,101535
2019-05-15T04:27:29.000Z,101524
2019-05-15T04:28:44.000Z,101524
2019-05-15T04:29:44.000Z,101532
2019-05-15T04:31:29.000Z,101535
2019-05-15T04:32:44.000Z,101533
2019-05-15T04:34:14.000Z,101535
2019-05-15T04:35:44.000Z,101536
2019-05-15T04:37:29.000Z,101539
2019-05-15T04:38:44.000Z,101533
2019-05-15T04:40:29.000Z,101533
2019-05-15T04:42:29.000Z,101532
2019-05-15T04:44:44.000Z,101530
2019-05-15T04:46:29.000Z,101533
2019-05-15T04:47:29.000Z,101531
2019-05-15T04:49:44.000Z,101532
2019-05-15T04:50:44.000Z,101531
2019-05-15T04:52:29.000Z,101536
2019-05-15T04:53:29.000Z,101532
2019-05-15T04:54:44.000Z,101533
2019-05-15T04:55:44.000Z,101537
2019-05-15T04:57:29.000Z,101540
2019-05-15T04:58:29.000Z,101534
2019-05-15T05:00:44.000Z,101528
2019-05-15T05:01:44.000Z,101531
2019-05-15T05:03:29.000Z,101530
2019-05-15T05:05:44.000Z,101533
2019-05-15T05:06:44.000Z,101537
2019-05-15T05:08:29.000Z,101534
2019-05-15T05:09:44.000Z,101542
2019-05-15T05:11:29.000Z,101541
2019-05-15T05:12:44.000Z,101541
2019-05-15T05:14:44.000Z,101544
2019-05-15T05:16:44.000Z,101537
2019-05-15T05:18:29.000Z,101538
2019-05-15T05:20:44.000Z,101538
2019-05-15T05:22:44.000Z,101544
2019-05-15T05:24:29.000Z,101550
2019-05-15T05:25:44.000Z,101541
2019-05-15T05:27:44.000Z,101543
2019-05-15T05:28:44.000Z,101541
2019-05-15T05:30:44.000Z,101540
2019-05-15T05:32:14.000Z,101542
2019-05-15T05:33:44.000Z,101538
2019-05-15T05:35:44.000Z,101541
2019-05-15T05:37:44.000Z,101539
2019-05-15T05:38:44.000Z,101535
2019-05-15T05:40:44.000Z,101540
2019-05-15T05:41:44.000Z,101535
2019-05-15T05:42:44.000Z,101541
2019-05-15T05:44:29.000Z,101541
2019-05-15T05:45:44.000Z,101536
2019-05-15T05:47:44.000Z,101536
2019-05-15T05:48:44.000Z,101538
2019-05-15T05:50:44.000Z,101547
2019-05-15T05:52:44.000Z,101534
2019-05-15T05:53:44.000Z,101542
2019-05-15T05:55:44.000Z,101540
2019-05-15T05:57:29.000Z,101533
2019-05-15T05:58:29.000Z,101532
2019-05-15T05:59:44.000Z,101532
2019-05-15T06:01:29.000Z,101527
2019-05-15T06:02:29.000Z,101529
2019-05-15T06:04:44.000Z,101535
2019-05-15T06:06:29.000Z,101541
2019-05-15T06:07:29.000Z,101540
2019-05-15T06:08:44.000Z,101532
2019-05-15T06:10:44.000Z,101538
2019-05-15T06:12:44.000Z,101530
2019-05-15T06:14:44.000Z,101542
2019-05-15T06:16:44.000Z,101539
2019-05-15T06:17:44.000Z,101536
2019-05-15T06:19:29.000Z,101541
2019-05-15T06:20:44.000Z,101535
2019-05-15T06:21:44.000Z,101540
2019-05-15T06:23:29.000Z,101541
2019-05-15T06:25:29.000Z,101538
2019-05-15T06:27:29.000Z,101531
2019-05-15T06:29:44.000Z,101540
2019-05-15T06:31:29.000Z,101535
2019-05-15T06:32:44.000Z,101536
2019-05-15T06:34:44.000Z,101534
2019-05-15T06:36:44.000Z,101542
2019-05-15T06:37:44.000Z,101551
2019-05-15T06:39:44.000Z,101544
2019-05-15T06:41:44.000Z,101543
2019-05-15T06:43:29.000Z,101542
2019-05-15T06:44:44.000Z,101552
2019-05-15T06:46:44.000Z,101547
2019-05-15T06:48:44.000Z,101550
2019-05-15T06:50:44.000Z,101547
2019-05-15T06:52:44.000Z,101544
2019-05-15T06:54:44.000Z,101548
2019-05-15T06:55:44.000Z,101548
2019-05-15T06:57:44.000Z,101545
2019-05-15T06:59:44.000Z,101541
2019-05-15T07:00:44.000Z,101538
2019-05-15T07:02:44.000Z,101547
2019-05-15T07:04:44.000Z,101547
2019-05-15T07:05:44.000Z,101541
2019-05-15T07:06:44.000Z,101539
2019-05-15T07:08:44.000Z,101547
2019-05-15T07:10:29.000Z,101542
2019-05-15T07:11:44.000Z,101540
2019-05-15T07:13:44.000Z,101536
2019-05-15T07:15:44.000Z,101540
2019-05-15T07:16:44.000Z,101542
2019-05-15T07:18:44.000Z,101536
2019-05-15T07:19:44.000Z,101541
2019-05-15T07:20:44.000Z,101537
2019-05-15T07:22:29.000Z,101538
2019-05-15T07:23:29.000Z,101532
2019-05-15T07:25:44.000Z,101538
2019-05-15T07:27:29.000Z,101535
2019-05-15T07:28:44.000Z,101533
2019-05-15T07:29:44.000Z,101535
2019-05-15T07:30:44.000Z,101535
2019-05-15T07:32:44.000Z,101539
2019-05-15T07:34:44.000Z,101530
2019-05-15T07:36:44.000Z,101539
2019-05-15T07:38:44.000Z,101530
2019-05-15T07:39:44.000Z,101529
2019-05-15T07:41:13.000Z,101517
2019-05-15T07:42:44.000Z,101529
2019-05-15T07:44:44.000Z,101528
2019-05-15T07:46:44.000Z,101529
2019-05-15T07:47:44.000Z,101528
2019-05-15T07:49:44.000Z,101528
2019-05-15T07:51:28.000Z,101525
2019-05-15T07:52:44.000Z,101528
2019-05-15T07:54:29.000Z,101529
2019-05-15T07:56:44.000Z,101530
2019-05-15T07:58:28.000Z,101511
2019-05-15T07:59:44.000Z,101524
2019-05-15T08:00:44.000Z,101519
2019-05-15T08:02:44.000Z,101520
2019-05-15T08:04:14.000Z,101513
2019-05-15T08:05:43.000Z,101511
2019-05-15T08:07:44.000Z,101506
2019-05-15T08:08:44.000Z,101506
2019-05-15T08:10:29.000Z,101500
2019-05-15T08:47:44.000Z,101496
2019-05-15T08:49:30.000Z,101482
2019-05-15T08:51:15.000Z,101476
2019-05-15T08:52:15.000Z,101485
2019-05-15T08:53:15.000Z,101482
2019-05-15T08:55:30.000Z,101479
2019-05-15T08:57:46.000Z,101481
2019-05-15T08:59:02.000Z,101478
2019-05-15T09:01:06.000Z,101477
2019-05-15T09:02:47.000Z,101473
2019-05-15T09:04:03.000Z,101479
2019-05-15T09:06:02.000Z,101469
2019-05-15T09:08:02.000Z,101463
2019-05-15T09:10:02.000Z,101462
2019-05-15T09:12:02.000Z,101466
2019-05-15T09:13:53.000Z,101459
2019-05-15T09:15:02.000Z,101462
2019-05-15T09:17:03.000Z,101458
2019-05-15T09:19:02.000Z,101464
2019-05-15T09:20:48.000Z,101464
2019-05-15T09:23:03.000Z,101459
2019-05-15T09:24:47.000Z,101458
2019-05-15T09:25:48.000Z,101448
2019-05-15T09:28:02.000Z,101463
2019-05-15T09:30:02.000Z,101439
2019-05-15T09:31:47.000Z,101457
2019-05-15T09:34:03.000Z,101445
2019-05-15T09:35:48.000Z,101442
2019-05-15T09:38:03.000Z,101452
2019-05-15T09:40:03.000Z,101444
2019-05-15T09:41:47.000Z,101437
2019-05-15T09:44:02.000Z,101439
2019-05-15T09:45:47.000Z,101445
2019-05-15T09:47:03.000Z,101432
2019-05-15T09:48:51.000Z,101427
2019-05-15T09:50:48.000Z,101426
2019-05-15T09:53:04.000Z,101430
2019-05-15T09:55:03.000Z,101421
2019-05-15T09:57:03.000Z,101417
2019-05-15T09:59:03.000Z,101423
2019-05-15T10:00:51.000Z,101418
2019-05-15T10:02:47.000Z,101415
2019-05-15T10:04:02.000Z,101427
2019-05-15T10:06:02.000Z,101433
2019-05-15T10:08:17.000Z,101425
2019-05-15T10:09:47.000Z,101421
2019-05-15T10:11:03.000Z,101420
2019-05-15T10:13:03.000Z,101418
2019-05-15T10:14:17.000Z,101408
2019-05-15T10:15:47.000Z,101412
2019-05-15T10:17:02.000Z,101412
2019-05-15T10:18:50.000Z,101409
2019-05-15T10:21:17.000Z,101417
2019-05-15T10:22:47.000Z,101405
2019-05-15T10:23:47.000Z,101394
2019-05-15T10:25:05.000Z,101401
2019-05-15T10:26:47.000Z,101395
2019-05-15T10:28:03.000Z,101398
2019-05-15T10:29:47.000Z,101393
2019-05-15T10:32:02.000Z,101397
2019-05-15T10:33:48.000Z,101380
2019-05-15T10:35:17.000Z,101389
2019-05-15T10:36:47.000Z,101391
2019-05-15T10:38:03.000Z,101387
2019-05-15T10:39:51.000Z,101377
2019-05-15T10:40:59.000Z,101380
2019-05-15T10:42:48.000Z,101376
2019-05-15T10:43:56.000Z,101364
2019-05-15T10:45:48.000Z,101373
2019-05-15T10:47:03.000Z,101367
2019-05-15T10:48:49.000Z,101368
2019-05-15T10:51:03.000Z,101373
2019-05-15T10:52:18.000Z,101368
2019-05-15T10:53:48.000Z,101370
2019-05-15T10:55:18.000Z,101366
2019-05-15T10:57:03.000Z,101358
2019-05-15T10:58:03.000Z,101359
2019-05-15T11:00:18.000Z,101348
2019-05-15T11:01:48.000Z,101343
2019-05-15T11:03:04.000Z,101350
2019-05-15T11:05:03.000Z,101345
2019-05-15T11:06:48.000Z,101349
2019-05-15T11:08:03.000Z,101345
2019-05-15T11:09:48.000Z,101345
2019-05-15T11:11:51.000Z,101355
2019-05-15T11:13:18.000Z,101348
2019-05-15T11:15:18.000Z,101340
2019-05-15T11:16:48.000Z,101338
2019-05-15T11:19:03.000Z,101337
2019-05-15T11:21:03.000Z,101337
2019-05-15T11:23:05.000Z,101327
2019-05-15T11:24:48.000Z,101333
2019-05-15T11:26:03.000Z,101330
2019-05-15T11:28:03.000Z,101317
2019-05-15T11:30:18.000Z,101314
2019-05-15T11:31:48.000Z,101298
2019-05-15T11:33:03.000Z,101308
2019-05-15T11:35:04.000Z,101303
2019-05-15T11:37:03.000Z,101304
2019-05-15T11:39:03.000Z,101296
2019-05-15T11:41:02.000Z,101284
2019-05-15T11:42:48.000Z,101304
2019-05-15T11:45:03.000Z,101292
2019-05-15T11:47:04.000Z,101297
2019-05-15T11:49:05.000Z,101296
2019-05-15T11:50:18.000Z,101306
2019-05-15T11:51:48.000Z,101293
2019-05-15T11:53:18.000Z,101283
2019-05-15T11:54:48.000Z,101290
2019-05-15T11:56:03.000Z,101284
2019-05-15T11:57:52.000Z,101281
2019-05-15T11:59:55.000Z,101288
2019-05-15T12:01:48.000Z,101283
2019-05-15T12:03:03.000Z,101297
2019-05-15T12:04:18.000Z,101288
2019-05-15T12:06:03.000Z,101281
2019-05-15T12:08:18.000Z,101276
2019-05-15T12:09:18.000Z,101285
2019-05-15T12:11:18.000Z,101266
2019-05-15T12:12:48.000Z,101272
2019-05-15T12:14:18.000Z,101283
2019-05-15T12:15:48.000Z,101280
2019-05-15T12:17:03.000Z,101275
2019-05-15T12:18:48.000Z,101269
2019-05-15T12:19:55.000Z,101280
2019-05-15T12:21:48.000Z,101273
2019-05-15T13:04:59.000Z,101249
2019-05-15T13:06:15.000Z,101246
2019-05-15T13:07:18.000Z,101241
2019-05-15T13:08:45.000Z,101247
2019-05-15T13:10:15.000Z,101243
2019-05-15T13:11:17.000Z,101239
2019-05-15T13:13:45.000Z,101242
2019-05-15T13:15:33.000Z,101240
2019-05-15T13:17:32.000Z,101218
2019-05-15T13:19:33.000Z,101224
2019-05-15T13:21:20.000Z,101219
2019-05-15T13:23:45.000Z,101225
2019-05-15T13:25:45.000Z,101218
2019-05-15T13:27:32.000Z,101213
2019-05-15T13:29:32.000Z,101213
2019-05-15T13:31:45.000Z,101209
2019-05-15T13:33:45.000Z,101213
2019-05-15T13:35:15.000Z,101208
2019-05-15T13:36:45.000Z,101205
2019-05-15T13:38:15.000Z,101204
2019-05-15T13:39:32.000Z,101200
2019-05-15T13:41:18.000Z,101204
2019-05-15T13:43:32.000Z,101202
2019-05-15T13:45:32.000Z,101193
2019-05-15T13:47:32.000Z,101195
2019-05-15T13:49:45.000Z,101189
2019-05-15T13:51:15.000Z,101182
2019-05-15T13:52:45.000Z,101196
2019-05-15T13:54:15.000Z,101174
2019-05-15T13:55:30.000Z,101194
2019-05-15T13:57:15.000Z,101187
2019-05-15T13:58:45.000Z,101185
2019-05-15T13:59:45.000Z,101184
2019-05-15T14:01:30.000Z,101172
2019-05-15T14:03:45.000Z,101174
2019-05-15T14:05:45.000Z,101172
2019-05-15T14:07:30.000Z,101178
2019-05-15T14:09:24.000Z,101169
2019-05-15T14:10:54.000Z,101167
2019-05-15T14:12:54.000Z,101175
2019-05-15T14:13:54.000Z,101174
2019-05-15T14:14:54.000Z,101178
2019-05-15T14:16:27.000Z,101176
2019-05-15T14:17:54.000Z,101172
2019-05-15T14:18:54.000Z,101162
2019-05-15T14:19:54.000Z,101164
2019-05-15T14:21:54.000Z,101159
2019-05-15T14:23:54.000Z,101158
2019-05-15T14:25:54.000Z,101164
2019-05-15T14:26:54.000Z,101168
2019-05-15T14:28:39.000Z,101165
2019-05-15T14:30:54.000Z,101168
2019-05-15T14:32:24.000Z,101161
2019-05-15T14:33:54.000Z,101168
2019-05-15T14:35:54.000Z,101153
2019-05-15T14:37:54.000Z,101163
2019-05-15T14:39:54.000Z,101157
2019-05-15T14:41:54.000Z,101148
2019-05-15T14:43:39.000Z,101146
2019-05-15T14:44:39.000Z,101141
2019-05-15T14:46:39.000Z,101145
2019-05-15T14:48:54.000Z,101151
2019-05-15T14:50:24.000Z,101149
2019-05-15T14:51:54.000Z,101151
2019-05-15T14:53:54.000Z,101143
2019-05-15T14:54:54.000Z,101143
2019-05-15T14:56:39.000Z,101134
2019-05-15T14:57:39.000Z,101136
2019-05-15T14:59:54.000Z,101126
2019-05-15T15:01:54.000Z,101139
2019-05-15T15:02:54.000Z,101130
2019-05-15T15:04:54.000Z,101129
2019-05-15T15:06:25.000Z,101125
2019-05-15T15:07:54.000Z,101126
2019-05-15T15:09:54.000Z,101123
2019-05-15T15:11:54.000Z,101124
2019-05-15T15:13:39.000Z,101129
2019-05-15T15:15:39.000Z,101120
2019-05-15T15:17:54.000Z,101123
2019-05-15T15:19:39.000Z,101122
2019-05-15T15:21:39.000Z,101124
2019-05-15T15:22:54.000Z,101119
2019-05-15T15:24:39.000Z,101112
2019-05-15T15:25:54.000Z,101117
2019-05-15T15:27:24.000Z,101105
2019-05-15T15:29:24.000Z,101113
2019-05-15T15:30:54.000Z,101116
2019-05-15T15:32:54.000Z,101112
2019-05-15T15:34:54.000Z,101102
2019-05-15T15:36:54.000Z,101094
2019-05-15T15:38:24.000Z,101099
2019-05-15T15:39:39.000Z,101094
2019-05-15T15:41:54.000Z,101091
2019-05-15T15:43:54.000Z,101098
2019-05-15T15:45:54.000Z,101095
2019-05-15T15:47:54.000Z,101084
2019-05-15T15:49:54.000Z,101085
2019-05-15T15:51:54.000Z,101091
2019-05-15T15:53:54.000Z,101092
2019-05-15T15:55:39.000Z,101091
2019-05-15T15:56:54.000Z,101093
2019-05-15T15:58:54.000Z,101093
2019-05-15T16:00:24.000Z,101081
2019-05-15T16:01:28.000Z,101082
2019-05-15T16:02:39.000Z,101078
2019-05-15T16:04:54.000Z,101077
2019-05-15T16:06:55.000Z,101087
2019-05-15T16:08:40.000Z,101061
2019-05-15T16:09:40.000Z,101089
2019-05-15T16:11:25.000Z,101092
2019-05-15T16:12:42.000Z,101094
2019-05-15T16:13:55.000Z,101084
2019-05-15T16:15:25.000Z,101082
2019-05-15T16:16:55.000Z,101078
2019-05-15T16:18:55.000Z,101083
2019-05-15T16:20:55.000Z,101080
2019-05-15T16:22:40.000Z,101078
2019-05-15T16:24:40.000Z,101069
2019-05-15T16:26:55.000Z,101083
2019-05-15T16:28:55.000Z,101071
2019-05-15T16:30:25.000Z,101079
2019-05-15T16:31:55.000Z,101079
2019-05-15T16:33:55.000Z,101068
2019-05-15T16:35:40.000Z,101066
2019-05-15T16:36:55.000Z,101062
2019-05-15T16:41:49.000Z,101052
2019-05-15T16:43:04.000Z,101067
2019-05-15T16:45:19.000Z,101052
2019-05-15T16:47:19.000Z,101055
2019-05-15T16:48:19.000Z,101054
2019-05-15T16:50:19.000Z,101050
2019-05-15T16:52:04.000Z,101053
2019-05-15T16:53:19.000Z,101049
2019-05-15T16:55:19.000Z,101044
2019-05-15T16:56:19.000Z,101050
2019-05-15T16:58:04.000Z,101044
2019-05-15T16:59:19.000Z,101043
2019-05-15T17:00:19.000Z,101051
2019-05-15T17:02:04.000Z,101047
2019-05-15T17:03:04.000Z,101045
2019-05-15T17:05:19.000Z,101045
2019-05-15T17:07:04.000Z,101047
2019-05-15T17:08:19.000Z,101049
2019-05-15T17:10:04.000Z,101051
2019-05-15T17:11:49.000Z,101049
2019-05-15T17:13:04.000Z,101056
2019-05-15T17:15:04.000Z,101056
2019-05-15T17:16:04.000Z,101050
2019-05-15T17:18:19.000Z,101052
2019-05-15T17:20:04.000Z,101051
2019-05-15T17:21:04.000Z,101054
2019-05-15T17:23:04.000Z,101051
2019-05-15T17:25:19.000Z,101052
2019-05-15T17:26:49.000Z,101047
2019-05-15T17:28:04.000Z,101044
2019-05-15T17:29:19.000Z,101045
2019-05-15T17:30:19.000Z,101048
2019-05-15T17:32:19.000Z,101041
2019-05-15T17:33:19.000Z,101031
2019-05-15T17:35:19.000Z,101037
2019-05-15T17:37:04.000Z,101035
2019-05-15T17:38:19.000Z,101037
2019-05-15T17:39:19.000Z,101037
2019-05-15T17:41:04.000Z,101034
2019-05-15T17:43:04.000Z,101037
2019-05-15T17:45:20.000Z,101037
2019-05-15T17:47:20.000Z,101041
2019-05-15T17:48:50.000Z,101032
2019-05-15T17:50:05.000Z,101038
2019-05-15T17:52:20.000Z,101043
2019-05-15T17:54:20.000Z,101040
2019-05-15T17:55:20.000Z,101035
2019-05-15T17:57:20.000Z,101034
2019-05-15T17:59:20.000Z,101036
2019-05-15T18:01:05.000Z,101034
2019-05-15T18:02:05.000Z,101034
2019-05-15T18:03:50.000Z,101039
2019-05-15T18:05:20.000Z,101039
2019-05-15T18:06:20.000Z,101036
2019-05-15T18:08:20.000Z,101039
2019-05-15T18:09:49.000Z,101046
2019-05-15T18:11:05.000Z,101037
2019-05-15T18:12:05.000Z,101039
2019-05-15T18:14:20.000Z,101032
2019-05-15T18:16:20.000Z,101040
2019-05-15T18:18:05.000Z,101040
2019-05-15T18:20:20.000Z,101039
2019-05-15T18:22:20.000Z,101037
2019-05-15T18:24:20.000Z,101040
2019-05-15T18:25:20.000Z,101048
2019-05-15T18:27:05.000Z,101043
2019-05-15T18:29:20.000Z,101045
2019-05-15T18:30:20.000Z,101046
2019-05-15T18:32:05.000Z,101048
2019-05-15T18:33:50.000Z,101044
2019-05-15T18:35:05.000Z,101044
2019-05-15T18:36:20.000Z,101048
2019-05-15T18:37:20.000Z,101046
2019-05-15T18:39:05.000Z,101048
2019-05-15T18:40:50.000Z,101044
2019-05-15T18:42:20.000Z,101043
2019-05-15T18:44:05.000Z,101037
2019-05-15T18:45:20.000Z,101046
2019-05-15T18:47:20.000Z,101042
2019-05-15T18:48:20.000Z,101037
2019-05-15T18:49:50.000Z,101042
2019-05-15T18:51:05.000Z,101044
2019-05-15T18:53:20.000Z,101043
2019-05-15T18:55:05.000Z,101041
2019-05-15T18:57:05.000Z,101039
2019-05-15T18:58:05.000Z,101039
2019-05-15T18:59:20.000Z,101039
2019-05-15T19:01:05.000Z,101039
2019-05-15T19:02:05.000Z,101039
2019-05-15T19:04:20.000Z,101041
2019-05-15T19:06:05.000Z,101041
2019-05-15T19:07:20.000Z,101040
2019-05-15T19:09:08.000Z,101042
2019-05-15T19:10:50.000Z,101042
2019-05-15T19:12:20.000Z,101040
2019-05-15T19:13:20.000Z,101045
2019-05-15T19:15:20.000Z,101046
2019-05-15T19:17:05.000Z,101040
2019-05-15T19:19:05.000Z,101039
2019-05-15T19:21:05.000Z,101043
2019-05-15T19:23:05.000Z,101040
2019-05-15T19:24:05.000Z,101044
2019-05-15T19:26:20.000Z,101046
2019-05-15T19:28:05.000Z,101037
2019-05-15T19:30:05.000Z,101037
2019-05-15T19:32:05.000Z,101038
2019-05-15T19:34:20.000Z,101040
2019-05-15T19:36:05.000Z,101043
2019-05-15T19:37:20.000Z,101039
2019-05-15T19:38:20.000Z,101040
2019-05-15T19:40:05.000Z,101039
2019-05-15T19:41:05.000Z,101033
2019-05-15T19:43:20.000Z,101035
2019-05-15T19:44:20.000Z,101038
2019-05-15T19:46:05.000Z,101037
2019-05-15T19:47:05.000Z,101039
2019-05-15T19:49:05.000Z,101039
2019-05-15T19:50:20.000Z,101041
2019-05-15T19:52:20.000Z,101037
2019-05-15T19:54:20.000Z,101038
2019-05-15T19:56:04.000Z,101033
2019-05-15T19:57:04.000Z,101031
2019-05-15T19:59:20.000Z,101033
2019-05-15T20:01:06.000Z,101030
2019-05-15T20:03:19.000Z,101028
2019-05-15T20:05:19.000Z,101028
2019-05-15T20:07:04.000Z,101025
2019-05-15T20:08:04.000Z,101025
2019-05-15T20:09:04.000Z,101024
2019-05-15T20:11:05.000Z,101025
2019-05-15T20:13:20.000Z,101029
2019-05-15T20:15:20.000Z,101025
2019-05-15T20:16:50.000Z,101023
2019-05-15T20:18:04.000Z,101025
2019-05-15T20:19:19.000Z,101026
2019-05-15T20:20:20.000Z,101023
2019-05-15T20:22:05.000Z,101027
2019-05-15T20:23:50.000Z,101032
2019-05-15T20:25:04.000Z,101031
2019-05-15T20:27:04.000Z,101040
2019-05-15T20:29:20.000Z,101037
2019-05-15T20:31:05.000Z,101036
2019-05-15T20:33:05.000Z,101036
2019-05-15T20:35:19.000Z,101044
2019-05-15T20:37:19.000Z,101037
2019-05-15T20:38:50.000Z,101040
2019-05-15T20:40:19.000Z,101043
2019-05-15T20:42:04.000Z,101043
2019-05-15T20:43:05.000Z,101040
2019-05-15T20:45:05.000Z,101039
2019-05-15T20:46:50.000Z,101030
2019-05-15T20:48:05.000Z,101031
2019-05-15T20:50:05.000Z,101035
2019-05-15T20:52:20.000Z,101036
2019-05-15T20:54:20.000Z,101034
2019-05-15T20:56:04.000Z,101031
2019-05-15T20:57:20.000Z,101034
2019-05-15T20:59:20.000Z,101026
2019-05-15T21:00:50.000Z,101023
2019-05-15T21:01:51.000Z,101032
2019-05-15T21:03:20.000Z,101028
2019-05-15T21:05:05.000Z,101033
2019-05-15T21:07:05.000Z,101032
2019-05-15T21:09:20.000Z,101033
2019-05-15T21:11:05.000Z,101026
2019-05-15T21:12:20.000Z,101029
2019-05-15T21:14:20.000Z,101025
2019-05-15T21:16:05.000Z,101019
2019-05-15T21:17:50.000Z,101015
2019-05-15T21:19:05.000Z,101019
2019-05-15T21:20:20.000Z,101019
2019-05-15T21:22:05.000Z,101020
2019-05-15T21:23:20.000Z,101014
2019-05-15T21:25:05.000Z,101013
2019-05-15T21:26:05.000Z,101015
2019-05-15T21:28:05.000Z,101019
2019-05-15T21:29:05.000Z,101012
2019-05-15T21:31:05.000Z,101009
2019-05-15T21:33:20.000Z,101011
2019-05-15T21:35:05.000Z,101010
2019-05-15T21:36:05.000Z,101012
2019-05-15T21:38:20.000Z,101014
2019-05-15T21:40:05.000Z,101010
2019-05-15T21:42:20.000Z,101011
2019-05-15T21:43:50.000Z,101007
2019-05-15T21:45:05.000Z,101009
2019-05-15T21:47:05.000Z,101009
2019-05-15T21:49:05.000Z,101008
2019-05-15T21:51:05.000Z,101003